Time;durP1;ratioP1;P1;durP2;ratioP2;P2;SDS_P1;SDS_P2;PMS_P1;PMS_P2;Temp;Humidity;BMP_temperature;BMP_pressure;BME280_temperature;BME280_humidity;BME280_pressure;Samples;Min_cycle;Max_cycle;Signal;HPM_P1;HPM_P2
2022/03/16 00:02:08;;;;;;;5.65;3.35;;;5.50;88.60;;;;;;5076793;28;20118;-81
2022/03/16 00:04:35;;;;;;;6.03;3.35;;;5.50;88.00;;;;;;5078275;28;20047;-81
2022/03/16 00:07:02;;;;;;;4.82;2.67;;;5.40;88.00;;;;;;5061399;28;20468;-81
2022/03/16 00:09:32;;;;;;;6.93;3.58;;;5.40;88.10;;;;;;5061784;28;20032;-80
2022/03/16 00:11:58;;;;;;;6.28;3.28;;;5.40;88.20;;;;;;5077274;28;20134;-80
2022/03/16 00:14:26;;;;;;;5.82;3.55;;;5.40;88.20;;;;;;5060779;28;20044;-80
2022/03/16 00:16:54;;;;;;;4.63;2.50;;;5.40;88.20;;;;;;5044610;28;20047;-80
2022/03/16 00:19:21;;;;;;;7.63;3.67;;;5.30;88.20;;;;;;5077368;28;20093;-81
2022/03/16 00:21:48;;;;;;;5.40;2.42;;;5.30;88.20;;;;;;5060525;28;20385;-81
2022/03/16 00:24:15;;;;;;;5.97;2.55;;;5.30;88.30;;;;;;5060523;28;20059;-80
2022/03/16 00:26:42;;;;;;;6.47;2.88;;;5.30;88.30;;;;;;5077325;28;20040;-80
2022/03/16 00:29:09;;;;;;;6.40;2.90;;;5.30;88.30;;;;;;5077384;28;20044;-81
2022/03/16 00:31:36;;;;;;;5.63;3.08;;;5.20;88.30;;;;;;5060793;28;20403;-81
2022/03/16 00:34:03;;;;;;;6.13;3.30;;;5.20;88.30;;;;;;5060395;28;20087;-80
2022/03/16 00:36:30;;;;;;;4.47;2.70;;;5.20;88.40;;;;;;5060243;28;20105;-80
2022/03/16 00:38:59;;;;;;;5.68;3.38;;;5.20;88.40;;;;;;5044186;28;20047;-80
2022/03/16 00:41:26;;;;;;;6.22;3.75;;;5.20;88.40;;;;;;5076935;28;20040;-80
2022/03/16 00:43:55;;;;;;;6.25;3.60;;;5.10;88.50;;;;;;5060457;28;20045;-80
2022/03/16 00:46:22;;;;;;;7.45;3.22;;;5.10;88.50;;;;;;5076568;28;20036;-81
2022/03/16 00:48:49;;;;;;;5.35;2.95;;;5.10;88.50;;;;;;5076504;28;20036;-80
2022/03/16 00:51:16;;;;;;;5.15;3.17;;;5.10;88.50;;;;;;5060270;28;20484;-80
2022/03/16 00:53:45;;;;;;;4.03;2.55;;;5.10;88.60;;;;;;5076574;28;20040;-80
2022/03/16 00:56:12;;;;;;;6.38;3.05;;;5.00;88.50;;;;;;5076715;28;20056;-80
2022/03/16 00:58:39;;;;;;;6.28;3.33;;;5.00;88.60;;;;;;5076482;28;20036;-81
2022/03/16 01:01:07;;;;;;;6.32;3.00;;;5.00;88.80;;;;;;5076409;28;20129;-80
2022/03/16 01:03:35;;;;;;;7.57;3.90;;;5.00;88.60;;;;;;5059778;28;20089;-81
2022/03/16 01:06:03;;;;;;;5.55;3.30;;;5.00;88.70;;;;;;5076549;28;20044;-81
2022/03/16 01:08:29;;;;;;;7.07;3.35;;;5.00;88.70;;;;;;5059898;28;20044;-80
2022/03/16 01:10:57;;;;;;;7.90;3.55;;;4.90;88.70;;;;;;5059194;28;20609;-75
2022/03/16 01:13:25;;;;;;;5.22;3.30;;;4.90;88.70;;;;;;5075442;28;20040;-75
2022/03/16 01:15:52;;;;;;;6.25;3.50;;;4.90;89.30;;;;;;5042638;28;20040;-75
2022/03/16 01:18:19;;;;;;;6.20;3.60;;;4.80;88.70;;;;;;5059190;28;20101;-75
2022/03/16 01:20:46;;;;;;;5.78;3.28;;;4.80;88.70;;;;;;5042955;28;20040;-75
2022/03/16 01:23:14;;;;;;;7.03;4.03;;;4.80;88.80;;;;;;5058974;28;20043;-75
2022/03/16 01:25:40;;;;;;;5.80;3.20;;;4.80;88.80;;;;;;5075757;28;20093;-75
2022/03/16 01:28:08;;;;;;;5.80;3.38;;;4.70;88.80;;;;;;5093493;28;20509;-75
2022/03/16 01:30:35;;;;;;;6.13;3.78;;;4.70;88.80;;;;;;5059153;28;20077;-75
2022/03/16 01:33:03;;;;;;;6.07;3.38;;;4.70;88.80;;;;;;5075425;28;20040;-75
2022/03/16 01:35:30;;;;;;;7.35;3.88;;;4.70;88.80;;;;;;5058540;28;20130;-75
2022/03/16 01:37:57;;;;;;;6.13;3.83;;;4.70;88.90;;;;;;5075350;28;20040;-75
2022/03/16 01:40:24;;;;;;;6.35;3.22;;;4.70;88.90;;;;;;5075361;28;20040;-75
2022/03/16 01:42:52;;;;;;;6.93;3.65;;;4.60;88.90;;;;;;5059206;28;20043;-75
2022/03/16 01:45:19;;;;;;;6.47;3.15;;;4.60;88.90;;;;;;5058116;28;20052;-75
2022/03/16 01:47:47;;;;;;;7.05;3.85;;;4.60;89.00;;;;;;5042362;28;20048;-75
2022/03/16 01:50:14;;;;;;;6.00;3.50;;;4.60;89.00;;;;;;5058135;28;20617;-75
2022/03/16 01:52:43;;;;;;;7.28;3.42;;;4.60;89.00;;;;;;5058272;28;20101;-75
2022/03/16 01:55:10;;;;;;;6.78;3.70;;;4.60;89.10;;;;;;5057821;28;20040;-75
2022/03/16 01:57:40;;;;;;;6.05;3.35;;;4.60;89.10;;;;;;5057733;28;20040;-75
2022/03/16 02:00:09;;;;;;;5.75;3.13;;;4.60;89.20;;;;;;5057842;28;20512;-75
2022/03/16 02:02:39;;;;;;;5.53;3.15;;;4.60;89.20;;;;;;5075131;28;20067;-75
2022/03/16 02:05:06;;;;;;;8.35;3.95;;;4.60;89.20;;;;;;5041349;28;20047;-76
2022/03/16 02:07:33;;;;;;;5.85;3.03;;;4.60;89.20;;;;;;5057835;28;20492;-75
2022/03/16 02:10:05;;;;;;;5.93;3.28;;;4.60;89.20;;;;;;5041504;28;20048;-75
2022/03/16 02:12:49;;;;;;;7.40;3.95;;;4.60;89.20;;;;;;5074535;28;20044;-75
2022/03/16 02:15:21;;;;;;;6.57;3.30;;;4.60;89.20;;;;;;5074731;28;20036;-75
2022/03/16 02:17:50;;;;;;;7.13;3.85;;;4.60;89.30;;;;;;5074324;28;20499;-75
2022/03/16 02:20:18;;;;;;;7.25;3.80;;;4.60;89.30;;;;;;5057734;28;20777;-75
2022/03/16 02:23:07;;;;;;;6.10;3.25;;;4.50;89.20;;;;;;5058045;28;20039;-75
2022/03/16 02:25:50;;;;;;;7.40;4.22;;;4.60;89.30;;;;;;5070349;28;20083;-75
2022/03/16 02:28:19;;;;;;;6.32;3.78;;;4.50;89.40;;;;;;5070994;28;20074;-75
2022/03/16 02:30:46;;;;;;;6.75;3.72;;;4.60;89.50;;;;;;5071986;28;20449;-75
2022/03/16 02:33:13;;;;;;;6.30;3.80;;;4.50;89.40;;;;;;5054171;28;20048;-75
2022/03/16 02:35:41;;;;;;;6.43;3.85;;;4.50;89.40;;;;;;5037711;28;20048;-75
2022/03/16 02:38:08;;;;;;;7.03;4.32;;;4.50;89.50;;;;;;5070772;28;20090;-75
2022/03/16 02:40:35;;;;;;;7.38;3.75;;;4.60;89.50;;;;;;5070952;28;20045;-75
2022/03/16 02:43:05;;;;;;;6.57;3.63;;;4.60;90.00;;;;;;5043498;28;20036;-74
2022/03/16 02:45:32;;;;;;;7.28;4.22;;;4.60;89.60;;;;;;5068345;28;20048;-75
2022/03/16 02:48:01;;;;;;;6.55;3.63;;;4.60;89.60;;;;;;5055479;28;20140;-75
2022/03/16 02:50:28;;;;;;;9.38;5.45;;;4.70;89.60;;;;;;5067290;28;20045;-75
2022/03/16 02:52:55;;;;;;;7.13;4.22;;;4.70;89.60;;;;;;5034361;28;20380;-75
2022/03/16 02:55:44;;;;;;;6.43;3.97;;;4.70;89.60;;;;;;5037029;28;20408;-75
2022/03/16 02:58:13;;;;;;;7.25;3.80;;;4.70;89.60;;;;;;5067282;28;20401;-75
2022/03/16 03:00:41;;;;;;;6.82;3.83;;;4.80;89.60;;;;;;5066994;28;20037;-75
2022/03/16 03:03:09;;;;;;;6.47;3.47;;;4.80;89.70;;;;;;5051830;28;20083;-75
2022/03/16 03:05:37;;;;;;;7.05;4.05;;;4.80;89.70;;;;;;5066874;28;20495;-75
2022/03/16 03:08:04;;;;;;;8.48;5.32;;;4.90;89.80;;;;;;5050659;28;20064;-75
2022/03/16 03:10:31;;;;;;;7.22;4.03;;;4.90;89.70;;;;;;5050660;28;20041;-74
2022/03/16 03:12:58;;;;;;;8.00;4.53;;;5.00;89.70;;;;;;5034116;28;20044;-75
2022/03/16 03:15:25;;;;;;;10.20;4.93;;;5.00;89.70;;;;;;5050240;28;20045;-75
2022/03/16 03:17:52;;;;;;;7.28;4.28;;;5.10;89.80;;;;;;5033978;28;20082;-75
2022/03/16 03:20:19;;;;;;;10.02;5.38;;;5.10;89.70;;;;;;5050454;28;20091;-75
2022/03/16 03:22:46;;;;;;;6.95;4.38;;;5.10;89.70;;;;;;5050173;28;20103;-75
2022/03/16 03:25:14;;;;;;;8.10;4.78;;;5.10;89.90;;;;;;5050618;28;20057;-75
2022/03/16 03:27:42;;;;;;;8.23;4.10;;;5.10;90.00;;;;;;5050423;28;20045;-75
2022/03/16 03:30:12;;;;;;;8.18;3.97;;;5.10;90.00;;;;;;5034026;28;20069;-75
2022/03/16 03:32:39;;;;;;;7.13;4.07;;;5.10;90.00;;;;;;5033780;28;20052;-75
2022/03/16 03:35:07;;;;;;;9.30;5.20;;;5.10;90.00;;;;;;5050198;28;20041;-75
2022/03/16 03:37:36;;;;;;;8.25;4.85;;;5.10;90.10;;;;;;5070419;28;20033;-76
2022/03/16 03:40:04;;;;;;;7.43;4.82;;;5.10;90.10;;;;;;5070662;28;20443;-75
2022/03/16 03:42:31;;;;;;;7.97;4.40;;;5.10;90.10;;;;;;5070541;28;20041;-75
2022/03/16 03:44:58;;;;;;;6.97;4.20;;;5.10;90.10;;;;;;5055340;28;20045;-75
2022/03/16 03:47:25;;;;;;;8.43;4.63;;;5.10;90.40;;;;;;5054129;28;20045;-75
2022/03/16 03:49:52;;;;;;;8.07;4.45;;;5.10;90.10;;;;;;5054087;28;20052;-76
2022/03/16 03:52:22;;;;;;;7.30;4.22;;;5.10;90.20;;;;;;5070330;28;20447;-75
2022/03/16 03:54:49;;;;;;;8.52;5.05;;;5.10;90.20;;;;;;5070374;28;20045;-75
2022/03/16 03:57:16;;;;;;;6.82;4.43;;;5.10;90.20;;;;;;5053429;28;20137;-75
2022/03/16 03:59:44;;;;;;;9.18;5.85;;;5.10;90.30;;;;;;5053666;28;20041;-75
2022/03/16 04:02:11;;;;;;;9.27;5.65;;;5.10;90.30;;;;;;5053692;28;20045;-75
2022/03/16 04:04:38;;;;;;;9.23;5.00;;;5.10;90.30;;;;;;5053745;28;20132;-75
2022/03/16 04:07:05;;;;;;;9.18;5.70;;;5.10;90.30;;;;;;5053295;28;20053;-75
2022/03/16 04:09:32;;;;;;;11.05;6.40;;;5.10;90.30;;;;;;5053409;28;20041;-75
2022/03/16 04:11:59;;;;;;;8.82;5.72;;;5.10;90.30;;;;;;5069976;28;20045;-75
2022/03/16 04:14:26;;;;;;;10.25;6.43;;;5.10;90.30;;;;;;5053296;28;20041;-75
2022/03/16 04:16:54;;;;;;;10.73;7.00;;;5.10;90.30;;;;;;5069723;28;20519;-75
2022/03/16 04:19:21;;;;;;;8.95;5.13;;;5.10;90.30;;;;;;5036855;28;20040;-75
2022/03/16 04:21:48;;;;;;;9.80;5.93;;;5.10;90.30;;;;;;5069886;28;20040;-75
2022/03/16 04:24:15;;;;;;;9.63;6.00;;;5.10;90.40;;;;;;5053212;28;20517;-75
2022/03/16 04:26:42;;;;;;;10.75;7.05;;;5.10;90.40;;;;;;5020313;28;20076;-75
2022/03/16 04:29:11;;;;;;;10.90;7.10;;;5.00;90.40;;;;;;5053184;28;20056;-75
2022/03/16 04:31:38;;;;;;;9.35;6.13;;;5.00;90.50;;;;;;5054546;28;20065;-75
2022/03/16 04:34:05;;;;;;;9.95;5.65;;;5.10;90.50;;;;;;5069828;28;20045;-75
2022/03/16 04:36:32;;;;;;;8.20;5.18;;;5.00;90.50;;;;;;5053074;28;20048;-75
2022/03/16 04:38:59;;;;;;;7.95;5.07;;;5.00;90.50;;;;;;5053079;28;20087;-75
2022/03/16 04:41:27;;;;;;;8.05;4.70;;;5.00;90.50;;;;;;5036620;28;20044;-75
2022/03/16 04:43:58;;;;;;;9.70;5.45;;;5.00;90.60;;;;;;5041293;28;20049;-76
2022/03/16 04:46:25;;;;;;;8.02;4.85;;;5.00;90.60;;;;;;5053336;28;20467;-75
2022/03/16 04:48:52;;;;;;;7.55;4.50;;;5.00;90.70;;;;;;5035562;28;20056;-75
2022/03/16 04:51:19;;;;;;;9.52;4.63;;;5.00;90.70;;;;;;5069083;28;20045;-75
2022/03/16 04:53:46;;;;;;;8.48;4.55;;;5.00;90.70;;;;;;5035951;28;20517;-75
2022/03/16 04:56:14;;;;;;;6.85;4.25;;;5.00;90.70;;;;;;5019489;28;20045;-75
2022/03/16 04:58:41;;;;;;;8.57;5.43;;;5.00;90.70;;;;;;5052720;28;20033;-75
2022/03/16 05:01:08;;;;;;;7.85;4.65;;;4.90;90.70;;;;;;5052445;28;20573;-75
2022/03/16 05:03:35;;;;;;;6.90;4.30;;;4.90;90.70;;;;;;5052400;28;20052;-75
2022/03/16 05:06:02;;;;;;;8.35;5.00;;;5.00;90.70;;;;;;5035850;28;20075;-75
2022/03/16 05:08:29;;;;;;;8.70;4.40;;;5.00;90.80;;;;;;5069249;28;20079;-75
2022/03/16 05:10:56;;;;;;;7.95;4.53;;;4.90;91.00;;;;;;5052542;28;20044;-75
2022/03/16 05:13:23;;;;;;;8.57;4.85;;;5.00;90.80;;;;;;5052251;28;20123;-75
2022/03/16 05:15:50;;;;;;;8.60;4.88;;;4.90;90.80;;;;;;5035672;28;20049;-75
2022/03/16 05:18:17;;;;;;;7.95;4.82;;;4.90;90.80;;;;;;5035959;28;20106;-75
2022/03/16 05:20:45;;;;;;;9.73;5.13;;;4.90;90.80;;;;;;5052441;28;20033;-75
2022/03/16 05:23:11;;;;;;;6.10;3.47;;;4.90;90.80;;;;;;5035726;28;20040;-75
2022/03/16 05:25:39;;;;;;;7.20;4.85;;;4.80;90.80;;;;;;5035464;28;20061;-75
2022/03/16 05:28:06;;;;;;;8.88;4.85;;;4.80;90.80;;;;;;5051945;28;20076;-75
2022/03/16 05:30:33;;;;;;;7.55;4.65;;;4.80;90.90;;;;;;5068346;28;20041;-75
2022/03/16 05:33:01;;;;;;;10.50;5.63;;;4.80;90.90;;;;;;5035695;28;20049;-75
2022/03/16 05:35:29;;;;;;;7.68;4.63;;;4.80;90.90;;;;;;5068114;28;20087;-75
2022/03/16 05:37:57;;;;;;;9.25;5.63;;;4.80;90.90;;;;;;5068057;28;20041;-75
2022/03/16 05:40:24;;;;;;;9.85;5.20;;;4.70;90.90;;;;;;5068210;28;20048;-75
2022/03/16 05:42:51;;;;;;;8.75;5.18;;;4.70;90.90;;;;;;5051637;28;20401;-75
2022/03/16 05:45:21;;;;;;;8.65;4.95;;;4.70;90.90;;;;;;5035412;28;20041;-75
2022/03/16 05:47:49;;;;;;;8.65;4.75;;;4.70;90.90;;;;;;5067937;28;20041;-75
2022/03/16 05:50:19;;;;;;;8.52;5.30;;;4.70;91.00;;;;;;5034742;28;20429;-75
2022/03/16 05:52:46;;;;;;;10.68;6.60;;;4.70;91.00;;;;;;5035163;28;20491;-75
2022/03/16 05:55:16;;;;;;;8.63;5.97;;;4.70;91.00;;;;;;5051306;28;20068;-75
2022/03/16 05:57:44;;;;;;;9.45;5.68;;;4.70;91.00;;;;;;5067746;28;20383;-75
2022/03/16 06:00:14;;;;;;;8.50;5.43;;;4.70;91.00;;;;;;5050877;28;20126;-75
2022/03/16 06:02:44;;;;;;;9.70;5.35;;;4.70;91.00;;;;;;5067823;28;20037;-75
2022/03/16 06:05:12;;;;;;;10.63;5.88;;;4.70;91.00;;;;;;5035141;28;20045;-76
2022/03/16 06:07:40;;;;;;;9.07;5.45;;;4.70;91.00;;;;;;5034965;28;20063;-75
2022/03/16 06:10:09;;;;;;;10.10;6.13;;;4.70;91.10;;;;;;5051439;28;20063;-75
2022/03/16 06:13:02;;;;;;;10.18;5.95;;;4.70;91.10;;;;;;5067953;28;20507;-75
2022/03/16 06:15:36;;;;;;;9.63;5.25;;;4.70;91.10;;;;;;5052407;28;20140;-75
2022/03/16 06:18:03;;;;;;;12.23;7.22;;;4.70;91.00;;;;;;5052369;28;20112;-75
2022/03/16 06:20:32;;;;;;;9.15;6.00;;;4.80;91.10;;;;;;5067884;28;20044;-76
2022/03/16 06:22:59;;;;;;;10.60;6.55;;;4.80;91.10;;;;;;5051228;28;20159;-75
2022/03/16 06:25:27;;;;;;;13.00;6.70;;;4.80;91.10;;;;;;5050706;28;20409;-75
2022/03/16 06:27:54;;;;;;;12.25;6.95;;;4.80;91.10;;;;;;5034537;28;20511;-75
2022/03/16 06:30:21;;;;;;;10.90;7.22;;;4.80;91.10;;;;;;5051076;28;20087;-76
2022/03/16 06:32:51;;;;;;;11.13;6.97;;;4.90;91.10;;;;;;5052472;28;20094;-75
2022/03/16 06:35:18;;;;;;;10.00;6.40;;;4.90;91.10;;;;;;5034832;28;20055;-75
2022/03/16 06:37:45;;;;;;;11.88;6.93;;;4.90;91.10;;;;;;5034392;28;20095;-75
2022/03/16 06:40:14;;;;;;;11.35;7.07;;;4.90;91.10;;;;;;5034488;28;20029;-75
2022/03/16 06:42:56;;;;;;;11.45;6.88;;;5.00;91.10;;;;;;5018098;28;20037;-75
2022/03/16 06:45:24;;;;;;;10.15;6.00;;;5.00;91.10;;;;;;5067381;28;20033;-75
2022/03/16 06:47:56;;;;;;;13.13;7.82;;;5.00;91.00;;;;;;5050949;28;20037;-75
2022/03/16 06:50:24;;;;;;;10.98;6.85;;;5.10;91.10;;;;;;5050947;28;20098;-75
2022/03/16 06:52:53;;;;;;;9.73;6.43;;;5.10;91.00;;;;;;5017924;28;20041;-76
2022/03/16 06:55:20;;;;;;;9.43;5.93;;;5.20;91.00;;;;;;5067539;28;20048;-75
2022/03/16 06:57:47;;;;;;;9.80;5.85;;;5.30;91.00;;;;;;5034220;28;20091;-75
2022/03/16 07:00:15;;;;;;;9.30;5.97;;;5.30;91.00;;;;;;5050719;28;20051;-76
2022/03/16 07:02:58;;;;;;;9.98;5.65;;;5.40;91.00;;;;;;5067627;28;20532;-75
2022/03/16 07:05:31;;;;;;;8.68;5.78;;;5.50;91.00;;;;;;5052258;28;20103;-75
2022/03/16 07:07:59;;;;;;;8.95;5.93;;;5.50;90.90;;;;;;5050618;28;20040;-75
2022/03/16 07:10:28;;;;;;;11.30;6.65;;;5.60;90.90;;;;;;5050727;28;20103;-75
2022/03/16 07:12:56;;;;;;;10.80;6.15;;;5.70;90.90;;;;;;5038725;28;20043;-75
2022/03/16 07:15:24;;;;;;;10.35;6.10;;;5.80;90.80;;;;;;5054380;28;20382;-75
2022/03/16 07:17:56;;;;;;;8.50;6.03;;;5.80;90.80;;;;;;5038795;28;20136;-76
2022/03/16 07:20:23;;;;;;;9.90;6.03;;;5.80;90.70;;;;;;5071078;28;20044;-76
2022/03/16 07:23:02;;;;;;;9.77;6.18;;;5.90;90.80;;;;;;5038110;28;20382;-75
2022/03/16 07:25:35;;;;;;;7.72;5.30;;;6.00;90.80;;;;;;5072860;28;20126;-75
2022/03/16 07:28:02;;;;;;;11.10;7.00;;;6.00;90.70;;;;;;5041069;28;20045;-75
2022/03/16 07:30:29;;;;;;;11.10;7.35;;;6.10;90.70;;;;;;5074373;28;20109;-75
2022/03/16 07:32:56;;;;;;;11.00;6.82;;;6.20;90.70;;;;;;5074125;28;20052;-75
2022/03/16 07:35:28;;;;;;;11.25;7.95;;;6.20;90.60;;;;;;5057942;28;20064;-76
2022/03/16 07:37:56;;;;;;;10.43;6.45;;;6.30;90.60;;;;;;5074305;28;20056;-76
2022/03/16 07:40:24;;;;;;;12.77;7.15;;;6.30;90.60;;;;;;5074235;28;20036;-75
2022/03/16 07:42:52;;;;;;;11.05;7.22;;;6.40;90.60;;;;;;5057466;28;20471;-76
2022/03/16 07:45:22;;;;;;;10.25;6.25;;;6.40;90.50;;;;;;5057461;28;20090;-75
2022/03/16 07:47:50;;;;;;;10.27;7.05;;;6.50;90.50;;;;;;5057352;28;20052;-75
2022/03/16 07:50:17;;;;;;;10.13;7.07;;;6.50;90.50;;;;;;5073911;28;20044;-75
2022/03/16 07:52:45;;;;;;;9.80;5.80;;;6.60;90.50;;;;;;5073571;28;20044;-75
2022/03/16 07:55:16;;;;;;;8.65;5.28;;;6.60;90.40;;;;;;5074615;28;20052;-74
2022/03/16 07:57:43;;;;;;;8.75;5.90;;;6.70;90.40;;;;;;5056618;28;20059;-74
2022/03/16 08:00:12;;;;;;;9.63;5.75;;;6.70;90.40;;;;;;5074715;28;20036;-74
2022/03/16 08:02:40;;;;;;;12.63;7.55;;;6.80;90.40;;;;;;5073574;28;20094;-75
2022/03/16 08:05:08;;;;;;;10.55;7.25;;;6.90;90.40;;;;;;5075424;28;20090;-82
2022/03/16 08:07:36;;;;;;;12.32;7.70;;;6.90;90.30;;;;;;5041587;28;20044;-82
2022/03/16 08:10:04;;;;;;;12.57;7.28;;;7.00;90.30;;;;;;5041251;28;20454;-82
2022/03/16 08:12:31;;;;;;;10.80;6.50;;;7.10;90.20;;;;;;5057557;28;20041;-82
2022/03/16 08:15:00;;;;;;;11.45;7.00;;;7.20;90.20;;;;;;5057745;28;20047;-82
2022/03/16 08:17:27;;;;;;;9.35;5.60;;;7.30;90.20;;;;;;5024517;28;20055;-82
2022/03/16 08:19:54;;;;;;;11.57;6.53;;;7.40;90.10;;;;;;5075346;28;20083;-83
2022/03/16 08:22:26;;;;;;;9.35;5.80;;;7.50;90.10;;;;;;5073102;28;20136;-83
2022/03/16 08:24:54;;;;;;;9.40;5.43;;;7.60;90.00;;;;;;5057271;28;20560;-82
2022/03/16 08:27:23;;;;;;;9.73;5.32;;;7.60;90.00;;;;;;5057477;28;20066;-81
2022/03/16 08:29:51;;;;;;;6.43;4.57;;;7.80;90.00;;;;;;5074927;28;20136;-81
2022/03/16 08:32:18;;;;;;;9.05;5.10;;;7.90;89.80;;;;;;5074931;28;20048;-82
2022/03/16 08:34:46;;;;;;;6.95;4.47;;;8.00;89.60;;;;;;5073704;28;20052;-82
2022/03/16 08:37:13;;;;;;;7.40;4.60;;;8.10;89.50;;;;;;5075324;28;20060;-81
2022/03/16 08:39:41;;;;;;;8.43;5.35;;;8.20;89.30;;;;;;5074286;28;20032;-82
2022/03/16 08:42:11;;;;;;;9.02;5.25;;;8.40;89.10;;;;;;5091755;28;20063;-82
2022/03/16 08:44:38;;;;;;;9.23;5.53;;;8.50;88.90;;;;;;5073749;28;20042;-81
2022/03/16 08:47:06;;;;;;;9.05;5.85;;;8.60;88.70;;;;;;5074578;28;20048;-81
2022/03/16 08:49:33;;;;;;;9.80;6.10;;;8.70;89.10;;;;;;5074211;28;20400;-82
2022/03/16 08:52:01;;;;;;;10.65;6.43;;;8.80;88.20;;;;;;5057615;28;20079;-82
2022/03/16 08:54:28;;;;;;;10.32;6.45;;;8.80;88.00;;;;;;5058241;28;20044;-81
2022/03/16 08:56:55;;;;;;;8.85;5.85;;;8.90;87.80;;;;;;5057577;28;20040;-82
2022/03/16 08:59:23;;;;;;;8.35;5.38;;;9.00;87.50;;;;;;5039419;28;20037;-81
2022/03/16 09:01:50;;;;;;;10.18;5.45;;;9.10;87.30;;;;;;5090825;28;20114;-81
2022/03/16 09:04:21;;;;;;;9.57;5.88;;;9.10;87.10;;;;;;5074767;28;20115;-81
2022/03/16 09:06:48;;;;;;;10.23;6.10;;;9.20;86.80;;;;;;5092190;28;20089;-81
2022/03/16 09:09:15;;;;;;;12.27;6.63;;;9.30;86.50;;;;;;5040964;28;20048;-81
2022/03/16 09:11:42;;;;;;;9.98;5.53;;;9.30;86.20;;;;;;5074318;28;20153;-81
2022/03/16 09:14:09;;;;;;;8.73;4.72;;;9.40;86.10;;;;;;5073756;28;20086;-81
2022/03/16 09:16:36;;;;;;;9.18;5.03;;;9.50;86.00;;;;;;5074487;28;20086;-81
2022/03/16 09:19:04;;;;;;;9.77;5.75;;;9.60;85.80;;;;;;5074519;28;20052;-81
2022/03/16 09:21:31;;;;;;;11.23;6.32;;;9.70;86.10;;;;;;5074003;28;20032;-81
2022/03/16 09:23:59;;;;;;;8.98;5.13;;;9.70;85.30;;;;;;5073830;28;20063;-81
2022/03/16 09:26:27;;;;;;;7.78;4.82;;;9.80;85.20;;;;;;5092493;28;20040;-81
2022/03/16 09:28:55;;;;;;;8.50;5.07;;;9.80;85.00;;;;;;5073934;28;20050;-81
2022/03/16 09:31:22;;;;;;;8.55;5.25;;;9.80;84.90;;;;;;5073888;28;20036;-81
2022/03/16 09:33:49;;;;;;;8.23;4.72;;;9.80;84.70;;;;;;5057796;28;20511;-81
2022/03/16 09:36:19;;;;;;;7.50;3.95;;;9.80;84.70;;;;;;5074003;28;20071;-82
2022/03/16 09:38:55;;;;;;;8.40;5.18;;;9.80;84.50;;;;;;5073555;28;20176;-81
2022/03/16 09:41:36;;;;;;;7.07;4.00;;;9.80;84.60;;;;;;5045798;28;20044;-81
2022/03/16 09:44:05;;;;;;;7.28;4.70;;;9.90;84.60;;;;;;5057081;28;20514;-81
2022/03/16 09:46:35;;;;;;;8.48;4.25;;;9.90;84.50;;;;;;5091613;28;20032;-81
2022/03/16 09:49:04;;;;;;;8.98;4.90;;;9.90;84.30;;;;;;5091721;28;20104;-82
2022/03/16 09:51:35;;;;;;;7.15;4.15;;;9.90;84.20;;;;;;5057261;28;20515;-82
2022/03/16 09:54:03;;;;;;;8.93;5.35;;;9.90;84.10;;;;;;5073180;28;20044;-82
2022/03/16 09:56:32;;;;;;;8.90;5.13;;;9.90;84.00;;;;;;5073278;28;20094;-82
2022/03/16 09:59:00;;;;;;;7.55;4.75;;;9.90;83.90;;;;;;5073397;28;20118;-80
2022/03/16 10:01:28;;;;;;;6.85;3.95;;;9.90;83.80;;;;;;5073848;28;20407;-81
2022/03/16 10:03:59;;;;;;;8.25;4.95;;;10.00;83.80;;;;;;5056926;28;20040;-82
2022/03/16 10:06:27;;;;;;;8.20;4.75;;;10.00;83.70;;;;;;5073285;28;20036;-80
2022/03/16 10:14:46;;;;;;;8.50;5.03;;;10.00;83.30;;;;;;5028891;28;20045;-79
2022/03/16 10:19:58;;;;;;;5.78;3.10;;;10.10;83.30;;;;;;5067113;28;20496;-81
2022/03/16 10:22:27;;;;;;;6.63;4.05;;;10.10;83.20;;;;;;5091321;28;20044;-81
2022/03/16 10:25:00;;;;;;;5.75;3.15;;;10.20;83.10;;;;;;5072880;28;20051;-81
2022/03/16 10:27:36;;;;;;;6.93;3.90;;;10.20;83.00;;;;;;5057043;28;20110;-81
2022/03/16 10:30:07;;;;;;;7.72;4.93;;;10.30;83.00;;;;;;5057017;28;20050;-81
2022/03/16 10:32:53;;;;;;;6.97;4.47;;;10.40;82.90;;;;;;5072526;28;20552;-81
2022/03/16 10:35:23;;;;;;;6.88;4.25;;;10.50;82.70;;;;;;5072719;28;20044;-81
2022/03/16 10:37:51;;;;;;;10.40;4.80;;;10.50;82.60;;;;;;5071741;28;20051;-80
2022/03/16 10:40:20;;;;;;;7.55;4.45;;;10.50;82.50;;;;;;5072414;28;20028;-75
2022/03/16 10:48:21;;;;;;;7.40;4.03;;;10.60;82.00;;;;;;5053234;28;20048;-75
2022/03/16 10:50:57;;;;;;;8.63;5.10;;;10.70;82.00;;;;;;5060288;28;20044;-75
2022/03/16 10:53:29;;;;;;;8.70;4.82;;;10.80;81.90;;;;;;5070589;28;20139;-75
2022/03/16 10:55:59;;;;;;;7.13;3.75;;;10.80;81.70;;;;;;5054986;28;20044;-75
2022/03/16 10:58:28;;;;;;;6.93;3.95;;;10.90;81.60;;;;;;5037641;28;20036;-75
2022/03/16 11:00:56;;;;;;;7.75;3.60;;;11.00;81.50;;;;;;5088380;28;20044;-74
2022/03/16 11:03:26;;;;;;;7.75;4.18;;;11.10;81.40;;;;;;5053803;28;20047;-72
2022/03/16 11:05:56;;;;;;;5.95;3.03;;;11.20;81.20;;;;;;5053038;28;20040;-73
2022/03/16 11:08:25;;;;;;;6.03;3.42;;;11.20;81.00;;;;;;5088408;28;20153;-73
2022/03/16 11:10:53;;;;;;;8.85;5.00;;;11.30;81.00;;;;;;5054349;28;20514;-74
2022/03/16 11:13:29;;;;;;;6.38;3.63;;;11.30;80.80;;;;;;5053676;28;20132;-74
2022/03/16 11:16:01;;;;;;;6.35;3.88;;;11.40;80.70;;;;;;5070696;28;20170;-74
2022/03/16 11:18:28;;;;;;;5.97;3.47;;;11.40;80.60;;;;;;5070899;28;20049;-74
2022/03/16 11:21:18;;;;;;;7.32;4.40;;;11.50;80.40;;;;;;5050115;28;20057;-74
2022/03/16 11:26:48;;;;;;;6.28;3.42;;;11.70;80.10;;;;;;5055870;28;20044;-74
2022/03/16 11:29:29;;;;;;;5.45;3.08;;;11.70;79.70;;;;;;5070092;28;20066;-74
2022/03/16 11:32:16;;;;;;;6.95;4.10;;;11.80;79.70;;;;;;5070184;28;20108;-74
2022/03/16 11:34:53;;;;;;;7.22;4.35;;;12.00;78.90;;;;;;5070778;28;20044;-74
2022/03/16 11:37:33;;;;;;;6.90;4.25;;;12.10;78.60;;;;;;5088542;28;20044;-73
2022/03/16 11:40:20;;;;;;;6.03;3.70;;;12.20;78.10;;;;;;5090258;28;20044;-74
2022/03/16 11:43:08;;;;;;;7.28;3.88;;;12.20;77.80;;;;;;5090906;28;20032;-74
2022/03/16 11:45:54;;;;;;;6.97;4.18;;;12.30;77.60;;;;;;5072379;28;20040;-74
2022/03/16 11:48:31;;;;;;;6.85;4.28;;;12.40;77.40;;;;;;5056242;28;20414;-74
2022/03/16 11:51:13;;;;;;;6.57;3.90;;;12.50;77.20;;;;;;5056231;28;20048;-73
2022/03/16 11:53:47;;;;;;;7.90;4.18;;;12.60;76.60;;;;;;5072773;28;20054;-73
2022/03/16 11:56:22;;;;;;;6.90;3.55;;;12.70;76.10;;;;;;5073026;28;20051;-74
2022/03/16 11:58:54;;;;;;;6.20;3.65;;;12.80;75.80;;;;;;5075318;28;20060;-74
2022/03/16 12:01:27;;;;;;;7.60;3.58;;;12.90;75.60;;;;;;5076828;28;20051;-74
2022/03/16 12:04:13;;;;;;;6.65;3.72;;;13.00;75.40;;;;;;5076657;28;20084;-74
2022/03/16 12:07:03;;;;;;;6.93;4.03;;;13.10;74.90;;;;;;5076598;28;20082;-75
2022/03/16 12:09:39;;;;;;;7.32;4.15;;;13.10;74.80;;;;;;5076904;28;20425;-75
2022/03/16 12:15:02;;;;;;;;;;;13.10;74.60;;;;;;5095914;28;20051;-82
2022/03/16 12:17:30;;;;;;;7.78;3.70;;;13.10;74.40;;;;;;5060434;28;20628;-82
2022/03/16 12:20:07;;;;;;;6.13;3.70;;;13.20;74.30;;;;;;5060914;28;20067;-84
2022/03/16 12:22:37;;;;;;;7.10;4.30;;;13.30;73.60;;;;;;5077407;28;20407;-82
2022/03/16 12:25:25;;;;;;;7.88;4.15;;;13.40;73.30;;;;;;5077331;28;20059;-82
2022/03/16 12:31:03;;;;;;;6.25;3.50;;;13.50;72.60;;;;;;5094938;28;20403;-81
2022/03/16 12:33:31;;;;;;;6.28;3.97;;;13.60;72.60;;;;;;5076534;28;20062;-81
2022/03/16 12:36:03;;;;;;;7.32;3.70;;;13.70;72.50;;;;;;5077038;28;20542;-81
2022/03/16 12:38:33;;;;;;;6.40;4.18;;;13.70;71.80;;;;;;5094961;28;20048;-83
2022/03/16 12:43:53;;;;;;;5.75;3.40;;;13.90;71.60;;;;;;5094954;28;20736;-81
2022/03/16 12:46:42;;;;;;;8.57;4.65;;;13.90;71.50;;;;;;5076808;28;20044;-80
2022/03/16 12:49:11;;;;;;;5.85;3.53;;;14.00;71.30;;;;;;5076911;28;20075;-81
2022/03/16 12:51:46;;;;;;;4.78;2.67;;;14.00;71.20;;;;;;5076956;28;20042;-81
2022/03/16 12:54:20;;;;;;;5.15;2.90;;;14.10;71.30;;;;;;5077013;28;20040;-81
2022/03/16 12:56:50;;;;;;;4.55;3.00;;;14.20;71.30;;;;;;5076635;28;20047;-81
2022/03/16 12:59:25;;;;;;;6.40;3.22;;;14.20;71.10;;;;;;5076612;28;20063;-81
2022/03/16 13:01:55;;;;;;;4.60;2.50;;;14.20;71.10;;;;;;5060273;28;20135;-82
2022/03/16 13:04:23;;;;;;;4.50;2.20;;;14.20;71.20;;;;;;5059947;28;20048;-83
2022/03/16 13:06:56;;;;;;;4.50;2.33;;;14.30;71.20;;;;;;5055986;28;20047;-74
2022/03/16 13:09:31;;;;;;;5.65;3.17;;;14.30;70.90;;;;;;5054589;28;20067;-74
2022/03/16 13:12:08;;;;;;;5.00;2.78;;;14.30;70.50;;;;;;5081112;28;20044;-73
2022/03/16 13:14:43;;;;;;;4.20;2.85;;;14.30;70.50;;;;;;5058091;28;20082;-74
2022/03/16 13:17:13;;;;;;;5.22;2.97;;;14.30;70.10;;;;;;5093490;28;20123;-75
2022/03/16 13:19:44;;;;;;;6.28;2.53;;;14.40;69.80;;;;;;5073600;28;20044;-74
2022/03/16 13:22:22;;;;;;;3.85;2.35;;;14.40;69.80;;;;;;5071971;28;20665;-74
2022/03/16 13:24:54;;;;;;;4.03;2.15;;;14.50;69.60;;;;;;5062725;28;20066;-76
2022/03/16 13:27:31;;;;;;;4.82;1.95;;;14.50;69.60;;;;;;5038458;28;20046;-74
2022/03/16 13:30:03;;;;;;;4.38;2.45;;;14.60;69.60;;;;;;5039700;28;20047;-74
2022/03/16 13:32:38;;;;;;;4.78;2.70;;;14.70;69.20;;;;;;5054873;28;20102;-73